Time;durP1;ratioP1;P1;durP2;ratioP2;P2;SDS_P1;SDS_P2;PMS_P1;PMS_P2;Temp;Humidity;BMP_temperature;BMP_pressure;BME280_temperature;BME280_humidity;BME280_pressure;Samples;Min_cycle;Max_cycle;Signal;HPM_P1;HPM_P2
2022/12/29 00:01:55;;;;;;;8.93;5.90;;;-0.10;82.40;;;;;;5016595;28;20474;-64
2022/12/29 00:04:21;;;;;;;11.33;6.90;;;-0.10;82.70;;;;;;5039287;28;20182;-64
2022/12/29 00:06:48;;;;;;;8.30;5.67;;;-0.20;83.00;;;;;;5043698;28;20266;-64
2022/12/29 00:09:15;;;;;;;9.07;5.80;;;-0.30;83.30;;;;;;5024117;28;20441;-64
2022/12/29 00:11:41;;;;;;;9.43;6.20;;;-0.30;83.00;;;;;;5011615;28;20438;-64
2022/12/29 00:16:54;;;;;;;10.60;7.13;;;-0.30;82.70;;;;;;5044561;28;20431;-64
2022/12/29 00:35:54;;;;;;;8.07;5.70;;;-0.30;82.80;;;;;;5039121;28;20471;-64
2022/12/29 00:44:05;;;;;;;8.07;5.47;;;-0.40;83.50;;;;;;5035764;28;20470;-65
2022/12/29 00:46:34;;;;;;;10.47;6.57;;;-0.40;83.70;;;;;;5002702;28;20765;-65
2022/12/29 00:51:46;;;;;;;8.60;5.77;;;-0.40;84.00;;;;;;5043398;28;20449;-65
2022/12/29 00:54:12;;;;;;;8.30;5.80;;;-0.30;83.70;;;;;;5037649;28;20430;-65
2022/12/29 00:56:37;;;;;;;10.87;6.60;;;-0.40;83.80;;;;;;5032916;28;20471;-64
2022/12/29 00:59:05;;;;;;;6.80;4.60;;;-0.40;83.80;;;;;;5024529;28;20192;-64
2022/12/29 01:01:31;;;;;;;9.37;5.43;;;-0.30;84.00;;;;;;5034956;28;20269;-62
2022/12/29 01:03:56;;;;;;;9.93;5.73;;;-0.30;83.80;;;;;;5027699;28;20463;-62
2022/12/29 01:06:23;;;;;;;7.67;5.60;;;-0.30;83.70;;;;;;5028320;28;20212;-62
2022/12/29 01:10:09;;;;;;;9.37;5.97;;;-0.30;83.60;;;;;;5019485;28;20218;-63
2022/12/29 01:11:34;;;;;;;11.27;6.60;;;-0.30;83.60;;;;;;5035321;28;20514;-64
2022/12/29 01:13:59;;;;;;;9.23;6.30;;;-0.30;83.30;;;;;;5015382;28;20539;-64
2022/12/29 01:16:25;;;;;;;9.43;6.17;;;-0.50;83.90;;;;;;5017025;28;20192;-64
2022/12/29 01:18:51;;;;;;;8.87;6.27;;;-0.50;83.70;;;;;;5033108;28;20192;-64
2022/12/29 01:21:16;;;;;;;7.53;5.13;;;-0.50;83.70;;;;;;5015221;28;20273;-63
2022/12/29 01:23:42;;;;;;;9.20;5.57;;;-0.50;83.80;;;;;;5037552;28;20220;-64
2022/12/29 01:26:12;;;;;;;9.93;5.83;;;-0.50;83.90;;;;;;5011276;28;20215;-63
2022/12/29 01:28:41;;;;;;;8.90;5.47;;;-0.50;83.60;;;;;;5023406;28;20211;-63
2022/12/29 01:31:08;;;;;;;8.80;5.83;;;-0.50;83.50;;;;;;5029515;28;20485;-63
2022/12/29 01:33:34;;;;;;;8.33;5.30;;;-0.60;83.60;;;;;;5030554;28;20422;-64
2022/12/29 01:36:01;;;;;;;10.57;6.77;;;-0.60;83.60;;;;;;5021453;28;20468;-64
2022/12/29 01:38:26;;;;;;;11.67;5.83;;;-0.60;83.50;;;;;;5033319;28;20191;-64
2022/12/29 01:40:52;;;;;;;7.93;5.90;;;-0.60;84.20;;;;;;5014313;28;20471;-64
2022/12/29 01:43:17;;;;;;;8.40;5.27;;;-0.60;84.00;;;;;;5030625;28;20345;-64
2022/12/29 01:45:53;;;;;;;8.93;5.77;;;-0.70;84.30;;;;;;5003253;28;20213;-64
2022/12/29 01:48:20;;;;;;;9.20;5.80;;;-0.70;84.00;;;;;;5018320;28;20184;-64
2022/12/29 01:50:51;;;;;;;8.07;6.07;;;-0.70;83.90;;;;;;5010435;28;20430;-64
2022/12/29 01:53:33;;;;;;;7.43;5.63;;;-0.70;83.70;;;;;;5034483;28;20420;-64
2022/12/29 01:56:04;;;;;;;7.93;4.90;;;-0.70;84.00;;;;;;5045715;28;20445;-65
2022/12/29 01:58:37;;;;;;;8.10;5.97;;;-0.70;84.10;;;;;;5036648;28;20443;-65
2022/12/29 02:01:04;;;;;;;7.13;5.43;;;-0.70;84.00;;;;;;5032340;28;20447;-65
2022/12/29 02:03:32;;;;;;;9.10;5.50;;;-0.70;83.90;;;;;;5018848;28;20475;-65
2022/12/29 02:06:05;;;;;;;7.93;6.33;;;-0.70;83.70;;;;;;5008046;28;20567;-65
2022/12/29 02:08:31;;;;;;;9.03;5.67;;;-0.70;83.70;;;;;;5032391;28;20445;-65
2022/12/29 02:10:59;;;;;;;10.63;5.80;;;-0.70;83.70;;;;;;5010891;28;20493;-65
2022/12/29 02:13:25;;;;;;;9.53;5.70;;;-0.70;83.80;;;;;;5031549;28;20195;-65
2022/12/29 02:15:51;;;;;;;8.13;5.50;;;-0.90;84.80;;;;;;5034674;28;20440;-64
2022/12/29 02:18:43;;;;;;;8.20;5.40;;;-1.00;84.90;;;;;;5050059;28;20438;-64
2022/12/29 02:21:46;;;;;;;7.40;4.90;;;-0.90;84.70;;;;;;5037982;28;20253;-65
2022/12/29 02:24:30;;;;;;;9.20;5.13;;;-0.90;85.00;;;;;;5019637;28;20435;-62
2022/12/29 02:27:23;;;;;;;8.27;4.90;;;-0.70;84.90;;;;;;5038782;28;22117;-64
2022/12/29 02:30:07;;;;;;;8.07;4.93;;;-0.70;84.90;;;;;;5024634;28;20429;-62
2022/12/29 02:32:51;;;;;;;8.87;5.50;;;-0.70;85.10;;;;;;5040628;28;20422;-63
2022/12/29 02:35:34;;;;;;;7.00;4.93;;;-0.60;86.50;;;;;;5038492;28;20421;-62
2022/12/29 02:38:09;;;;;;;7.10;4.97;;;-0.60;85.70;;;;;;5029521;28;20447;-63
2022/12/29 02:40:55;;;;;;;8.40;5.50;;;-0.60;85.60;;;;;;5024408;28;20482;-62
2022/12/29 02:43:36;;;;;;;11.33;5.63;;;-0.50;85.60;;;;;;5040127;28;20437;-62
2022/12/29 02:46:10;;;;;;;8.33;5.27;;;-0.50;85.50;;;;;;5036415;28;20517;-63
2022/12/29 02:48:47;;;;;;;7.20;5.77;;;-0.50;85.80;;;;;;5026305;28;20442;-63
2022/12/29 02:51:30;;;;;;;10.23;5.73;;;-0.40;85.70;;;;;;5038865;28;20503;-63
2022/12/29 02:56:41;;;;;;;8.03;5.10;;;-0.50;85.70;;;;;;5039385;28;20436;-63
2022/12/29 02:59:08;;;;;;;9.30;5.47;;;-0.50;85.30;;;;;;5017198;28;20437;-63
2022/12/29 03:02:16;;;;;;;7.90;4.87;;;-0.50;85.50;;;;;;5036189;28;20259;-63
2022/12/29 03:04:37;;;;;;;8.73;5.20;;;-0.50;85.10;;;;;;5048834;28;20436;-63
2022/12/29 03:07:42;;;;;;;8.00;4.90;;;-0.50;83.90;;;;;;5099019;27;20566;-62
2022/12/29 03:10:21;;;;;;;7.57;5.50;;;-0.70;83.90;;;;;;5057230;28;20451;-62
2022/12/29 03:16:07;;;;;;;13.03;5.27;;;-0.70;84.60;;;;;;5075504;28;20448;-62
2022/12/29 03:18:57;;;;;;;7.90;5.30;;;-0.70;84.10;;;;;;5080175;28;20410;-62
2022/12/29 03:24:49;;;;;;;8.53;5.00;;;-0.70;85.00;;;;;;5073843;28;20424;-62
2022/12/29 03:27:22;;;;;;;7.10;5.23;;;-0.70;84.80;;;;;;5095879;28;20434;-63
2022/12/29 03:29:56;;;;;;;6.37;5.20;;;-0.70;85.00;;;;;;5056669;28;20425;-63
2022/12/29 03:32:31;;;;;;;6.57;4.70;;;-0.70;85.20;;;;;;5064564;28;20509;-63
2022/12/29 03:34:58;;;;;;;5.50;4.17;;;-0.70;85.40;;;;;;5089505;28;20499;-63
2022/12/29 03:37:35;;;;;;;8.43;5.40;;;-0.70;85.30;;;;;;5057544;28;20416;-62
2022/12/29 03:40:01;;;;;;;6.60;5.03;;;-0.70;85.80;;;;;;5059251;28;20425;-63
2022/12/29 03:42:32;;;;;;;8.63;5.60;;;-0.70;85.60;;;;;;5067793;28;20781;-63
2022/12/29 03:44:57;;;;;;;9.83;5.00;;;-0.70;85.70;;;;;;5072184;28;20435;-63
2022/12/29 03:47:24;;;;;;;8.00;4.20;;;-0.60;86.30;;;;;;5056633;28;20521;-64
2022/12/29 03:49:51;;;;;;;6.80;5.03;;;-0.50;85.90;;;;;;5052952;28;20237;-64
2022/12/29 03:52:17;;;;;;;7.10;4.70;;;-0.40;85.70;;;;;;5071874;28;20445;-64
2022/12/29 03:54:43;;;;;;;5.93;4.70;;;-0.30;85.70;;;;;;5069586;28;20414;-64
2022/12/29 03:57:09;;;;;;;7.33;4.43;;;-0.30;85.50;;;;;;5060869;28;20455;-64
2022/12/29 03:59:35;;;;;;;8.17;4.63;;;-0.30;85.20;;;;;;5066348;28;20198;-64
2022/12/29 04:02:01;;;;;;;6.93;4.47;;;-0.30;85.30;;;;;;5065405;28;20448;-63
2022/12/29 04:04:27;;;;;;;7.27;4.60;;;-0.30;85.10;;;;;;5063523;28;20244;-63
2022/12/29 04:06:52;;;;;;;7.63;4.90;;;-0.30;84.30;;;;;;5061304;28;20230;-63
2022/12/29 04:09:18;;;;;;;8.13;4.57;;;-0.30;84.80;;;;;;5063391;28;20187;-63
2022/12/29 04:11:43;;;;;;;6.97;4.67;;;-0.30;84.70;;;;;;5065073;28;20185;-63
2022/12/29 04:14:09;;;;;;;6.00;4.87;;;-0.30;84.60;;;;;;5052765;28;20200;-63
2022/12/29 04:16:38;;;;;;;8.13;4.73;;;-0.40;85.00;;;;;;5057305;28;20192;-63
2022/12/29 04:19:05;;;;;;;8.27;5.27;;;-0.30;84.80;;;;;;5034601;28;20285;-63
2022/12/29 04:21:31;;;;;;;8.03;4.13;;;-0.30;84.80;;;;;;5051993;28;20454;-64
2022/12/29 04:23:57;;;;;;;6.60;5.17;;;-0.30;85.10;;;;;;5041918;28;20427;-64
2022/12/29 04:26:23;;;;;;;6.87;4.40;;;-0.30;84.90;;;;;;5038969;28;20219;-63
2022/12/29 04:28:48;;;;;;;6.47;4.33;;;-0.30;85.00;;;;;;5044929;28;20191;-63
2022/12/29 04:31:14;;;;;;;8.97;4.83;;;-0.10;85.80;;;;;;5051876;28;20185;-63
2022/12/29 04:33:40;;;;;;;6.53;4.30;;;-0.10;85.80;;;;;;5041158;28;20187;-63
2022/12/29 04:36:06;;;;;;;6.30;5.60;;;0.00;85.60;;;;;;5041487;28;20281;-63
2022/12/29 04:38:32;;;;;;;10.07;6.30;;;0.10;85.20;;;;;;5049210;28;20217;-63
2022/12/29 04:41:00;;;;;;;9.10;6.20;;;0.30;84.70;;;;;;5052298;28;20203;-63
2022/12/29 04:43:25;;;;;;;9.67;6.20;;;0.30;84.00;;;;;;5046585;28;20186;-63
2022/12/29 04:45:51;;;;;;;10.40;6.17;;;0.40;83.70;;;;;;5035294;28;20461;-63
2022/12/29 04:48:17;;;;;;;8.73;5.47;;;0.50;83.60;;;;;;5033453;28;20192;-63
2022/12/29 04:50:43;;;;;;;8.50;5.73;;;0.50;82.50;;;;;;5056597;28;20269;-63
2022/12/29 04:53:09;;;;;;;10.37;6.83;;;0.40;82.60;;;;;;5047622;28;20210;-63
2022/12/29 04:55:34;;;;;;;6.67;5.27;;;0.40;82.40;;;;;;5031627;28;20445;-63
2022/12/29 04:58:00;;;;;;;8.57;5.57;;;0.50;82.50;;;;;;5044097;28;20239;-63
2022/12/29 05:00:26;;;;;;;10.83;6.27;;;0.40;82.60;;;;;;5038715;28;20192;-63
2022/12/29 05:02:52;;;;;;;7.57;5.43;;;0.40;82.40;;;;;;5065494;28;20192;-63
2022/12/29 05:05:18;;;;;;;10.20;5.77;;;0.40;82.10;;;;;;5048717;28;20657;-63
2022/12/29 05:07:44;;;;;;;7.57;5.77;;;0.30;82.20;;;;;;5054920;28;20182;-63
2022/12/29 05:10:10;;;;;;;9.10;5.87;;;0.20;82.10;;;;;;5037778;28;20440;-63
2022/12/29 05:12:37;;;;;;;10.10;6.03;;;0.20;82.00;;;;;;5044885;28;20186;-63
2022/12/29 05:15:04;;;;;;;9.30;6.00;;;0.10;81.70;;;;;;5043332;28;20510;-63
2022/12/29 05:17:30;;;;;;;9.00;6.20;;;0.00;82.00;;;;;;5055584;28;20442;-63
2022/12/29 05:19:56;;;;;;;10.10;5.60;;;0.00;82.00;;;;;;5041291;28;20439;-63
2022/12/29 05:22:22;;;;;;;7.97;4.93;;;0.00;82.20;;;;;;5049473;28;20584;-63
2022/12/29 05:24:47;;;;;;;6.87;5.17;;;0.00;82.10;;;;;;5035655;28;20192;-63
2022/12/29 05:27:13;;;;;;;10.33;6.00;;;-0.10;82.30;;;;;;5042016;28;20210;-63
2022/12/29 05:29:39;;;;;;;9.63;5.50;;;-0.10;82.00;;;;;;5048962;28;20196;-63
2022/12/29 05:32:04;;;;;;;8.13;5.30;;;-0.30;82.10;;;;;;5034469;28;20739;-63
2022/12/29 05:34:30;;;;;;;7.70;4.70;;;-0.40;82.70;;;;;;5040334;28;20186;-63
2022/12/29 05:36:56;;;;;;;7.03;4.97;;;-0.40;82.80;;;;;;5054780;28;20203;-63
2022/12/29 05:39:22;;;;;;;6.57;4.93;;;-0.40;83.30;;;;;;5054361;28;20244;-63
2022/12/29 05:41:47;;;;;;;7.07;4.43;;;-0.40;83.30;;;;;;5055562;28;20192;-63
2022/12/29 05:44:13;;;;;;;6.27;4.30;;;-0.40;83.40;;;;;;5042665;28;20195;-63
2022/12/29 05:46:39;;;;;;;7.77;5.03;;;-0.30;83.70;;;;;;5046573;28;20436;-63
2022/12/29 05:49:05;;;;;;;7.00;4.73;;;-0.30;84.50;;;;;;5042604;28;20194;-63
2022/12/29 05:51:31;;;;;;;8.40;4.23;;;-0.30;83.90;;;;;;5052192;28;20178;-63
2022/12/29 05:53:57;;;;;;;6.50;4.70;;;-0.20;83.80;;;;;;5027143;28;20482;-63
2022/12/29 05:56:23;;;;;;;9.07;4.87;;;-0.20;83.80;;;;;;5046923;28;20205;-63
2022/12/29 05:58:49;;;;;;;8.80;5.23;;;-0.20;83.70;;;;;;5043535;28;20428;-63
2022/12/29 06:01:14;;;;;;;6.93;4.63;;;-0.20;84.00;;;;;;5027390;28;20187;-62
2022/12/29 06:03:40;;;;;;;7.70;5.87;;;-0.20;83.90;;;;;;5041789;28;20186;-63
2022/12/29 06:06:06;;;;;;;7.33;4.97;;;-0.10;83.90;;;;;;5045813;28;20252;-63
2022/12/29 06:08:32;;;;;;;7.30;4.83;;;-0.10;83.80;;;;;;5040431;28;20189;-63
2022/12/29 06:10:58;;;;;;;7.67;4.20;;;-0.20;83.30;;;;;;5019566;28;20465;-63
2022/12/29 06:13:23;;;;;;;8.47;4.67;;;-0.20;83.60;;;;;;5049148;28;20686;-63
2022/12/29 06:15:49;;;;;;;7.73;4.83;;;-0.20;83.40;;;;;;5040522;28;20221;-63
2022/12/29 06:18:15;;;;;;;6.93;4.80;;;-0.20;83.40;;;;;;5041240;28;20193;-63
2022/12/29 06:20:41;;;;;;;6.03;4.40;;;-0.10;83.50;;;;;;5024237;28;20478;-63
2022/12/29 06:23:07;;;;;;;8.60;4.50;;;-0.20;83.70;;;;;;5018748;28;20466;-63
2022/12/29 06:25:33;;;;;;;6.57;4.87;;;-0.20;83.70;;;;;;5027050;28;20264;-63
2022/12/29 06:27:59;;;;;;;6.83;4.30;;;-0.10;83.50;;;;;;5017288;28;20187;-63
2022/12/29 06:30:25;;;;;;;8.30;5.10;;;-0.10;83.70;;;;;;5022485;28;20433;-63
2022/12/29 06:32:51;;;;;;;7.10;4.60;;;-0.10;83.70;;;;;;5022752;28;20512;-63
2022/12/29 06:35:17;;;;;;;7.27;5.17;;;-0.10;83.70;;;;;;5006890;28;20219;-64
2022/12/29 06:37:43;;;;;;;6.53;3.90;;;-0.10;83.40;;;;;;5005112;28;20195;-64
2022/12/29 06:40:09;;;;;;;7.33;4.23;;;-0.10;83.50;;;;;;5020417;28;20194;-65
2022/12/29 06:42:35;;;;;;;7.20;4.70;;;-0.10;83.20;;;;;;5008531;28;20466;-65
2022/12/29 06:45:01;;;;;;;5.97;4.57;;;-0.10;83.10;;;;;;5010377;28;20470;-64
2022/12/29 06:47:27;;;;;;;9.40;4.87;;;-0.10;82.80;;;;;;5021017;28;20330;-64
2022/12/29 06:49:53;;;;;;;6.10;4.97;;;-0.10;82.80;;;;;;5024036;28;20428;-64
2022/12/29 06:52:18;;;;;;;7.43;5.07;;;-0.20;83.20;;;;;;5006483;28;20282;-64
2022/12/29 06:54:44;;;;;;;6.50;4.43;;;-0.20;83.20;;;;;;5001987;28;20218;-63
2022/12/29 06:57:10;;;;;;;7.83;4.47;;;-0.20;83.20;;;;;;5009641;28;20308;-63
2022/12/29 06:59:35;;;;;;;5.90;4.37;;;-0.20;83.10;;;;;;5019231;28;20203;-63
2022/12/29 07:02:05;;;;;;;6.03;4.90;;;-0.10;83.30;;;;;;5005584;28;20191;-63
2022/12/29 07:04:30;;;;;;;6.80;4.47;;;-0.10;83.30;;;;;;5005330;28;20195;-64
2022/12/29 07:06:56;;;;;;;7.73;4.40;;;-0.10;83.20;;;;;;5004517;28;20489;-64
2022/12/29 07:09:22;;;;;;;7.37;5.00;;;0.00;83.20;;;;;;5001917;28;20213;-64
2022/12/29 07:11:47;;;;;;;8.90;4.70;;;0.00;83.10;;;;;;5010328;28;20269;-64
2022/12/29 07:14:13;;;;;;;5.57;4.07;;;0.00;83.00;;;;;;5005026;28;20188;-64
2022/12/29 07:16:39;;;;;;;6.50;3.80;;;0.00;83.00;;;;;;5006876;28;20187;-64
2022/12/29 07:19:04;;;;;;;7.33;4.77;;;0.00;83.20;;;;;;5014465;28;20197;-64
2022/12/29 07:21:30;;;;;;;5.23;4.40;;;0.20;83.00;;;;;;5013198;28;20191;-64
2022/12/29 07:23:56;;;;;;;5.83;4.80;;;0.20;82.90;;;;;;5013962;28;20191;-64
2022/12/29 07:26:22;;;;;;;6.60;4.73;;;0.30;82.90;;;;;;5013329;28;20343;-64
2022/12/29 07:28:48;;;;;;;6.87;4.20;;;0.30;82.40;;;;;;5006807;28;20208;-64
2022/12/29 07:31:20;;;;;;;7.27;4.83;;;0.30;82.10;;;;;;5015277;28;20198;-63
2022/12/29 07:33:47;;;;;;;8.00;4.60;;;0.30;82.20;;;;;;5013381;28;20188;-63
2022/12/29 07:36:13;;;;;;;6.70;4.67;;;0.40;82.30;;;;;;5013261;28;20445;-64
2022/12/29 07:38:40;;;;;;;8.50;5.07;;;0.50;81.90;;;;;;5025184;28;20444;-64
2022/12/29 07:41:06;;;;;;;6.00;4.23;;;0.60;81.40;;;;;;5021203;28;20417;-64
2022/12/29 07:43:32;;;;;;;9.40;4.43;;;0.70;81.40;;;;;;5035911;28;21024;-63
2022/12/29 07:45:57;;;;;;;7.90;4.77;;;0.80;81.30;;;;;;5012014;28;20290;-63
2022/12/29 07:48:23;;;;;;;6.40;4.73;;;0.80;81.00;;;;;;5018517;28;20199;-64
2022/12/29 07:50:49;;;;;;;7.07;4.13;;;0.80;81.00;;;;;;5007960;28;20199;-63
2022/12/29 07:53:15;;;;;;;6.97;4.43;;;0.80;81.00;;;;;;5012672;28;20245;-63
2022/12/29 07:55:41;;;;;;;6.37;4.33;;;0.90;80.60;;;;;;5028021;28;20192;-63
2022/12/29 07:58:07;;;;;;;7.90;4.77;;;0.90;80.50;;;;;;5024060;28;20199;-63
2022/12/29 08:00:33;;;;;;;7.43;4.47;;;0.90;80.50;;;;;;5023132;28;20278;-63
2022/12/29 08:02:59;;;;;;;5.60;4.47;;;0.90;80.40;;;;;;5005786;28;20549;-63
2022/12/29 08:05:24;;;;;;;7.13;4.80;;;1.00;80.30;;;;;;4999754;28;20243;-65
2022/12/29 08:07:50;;;;;;;5.40;4.27;;;1.00;80.40;;;;;;5024716;28;20205;-64
2022/12/29 08:10:16;;;;;;;7.47;4.87;;;1.00;80.20;;;;;;5011990;28;20195;-62
2022/12/29 08:12:42;;;;;;;8.17;4.80;;;1.10;80.00;;;;;;5020552;28;20212;-63
2022/12/29 08:15:10;;;;;;;7.53;5.40;;;1.20;79.10;;;;;;5001339;28;20430;-64
2022/12/29 08:17:36;;;;;;;7.23;4.43;;;1.30;79.00;;;;;;5023227;28;20186;-63
2022/12/29 08:20:02;;;;;;;8.50;4.37;;;1.40;78.70;;;;;;5018158;28;20458;-64
2022/12/29 08:22:28;;;;;;;7.40;4.73;;;1.50;78.20;;;;;;5006752;28;20188;-64
2022/12/29 08:24:53;;;;;;;10.33;4.83;;;1.60;78.00;;;;;;5012688;28;20430;-62
2022/12/29 08:27:19;;;;;;;7.10;4.13;;;1.70;77.70;;;;;;5021284;28;20214;-64
2022/12/29 08:29:45;;;;;;;5.97;4.57;;;1.80;77.10;;;;;;5021651;28;20191;-64
2022/12/29 08:32:11;;;;;;;7.97;4.70;;;1.90;76.30;;;;;;5017242;28;20195;-62
2022/12/29 08:34:37;;;;;;;6.30;4.40;;;2.00;76.20;;;;;;5034941;28;20282;-63
2022/12/29 08:37:03;;;;;;;7.23;4.80;;;2.10;76.70;;;;;;5021431;28;20525;-62
2022/12/29 08:39:29;;;;;;;5.87;4.40;;;2.00;77.00;;;;;;5025531;28;20184;-65
2022/12/29 08:41:55;;;;;;;7.37;5.30;;;2.10;77.20;;;;;;5021723;28;20447;-63
2022/12/29 08:44:21;;;;;;;6.50;4.67;;;2.10;76.40;;;;;;5052145;28;20194;-63
2022/12/29 08:46:47;;;;;;;6.00;4.30;;;2.20;76.70;;;;;;5032068;28;20206;-63
2022/12/29 08:49:12;;;;;;;4.60;4.13;;;2.30;75.50;;;;;;5025411;28;20434;-63
2022/12/29 08:51:38;;;;;;;6.03;4.43;;;2.40;75.10;;;;;;5011397;28;20188;-63
2022/12/29 08:54:04;;;;;;;7.30;4.83;;;2.50;74.10;;;;;;5016248;28;20188;-63
2022/12/29 08:56:30;;;;;;;8.10;4.80;;;2.60;73.90;;;;;;5027182;28;20191;-63
2022/12/29 08:58:56;;;;;;;5.93;4.53;;;2.70;73.10;;;;;;5016449;28;20195;-64
2022/12/29 09:01:22;;;;;;;6.47;4.17;;;2.80;72.90;;;;;;5024072;28;20196;-64
2022/12/29 09:03:47;;;;;;;7.50;4.33;;;2.80;73.20;;;;;;5021514;28;20187;-64
2022/12/29 09:06:15;;;;;;;9.47;4.57;;;2.90;72.90;;;;;;5018607;28;20558;-64
2022/12/29 09:08:42;;;;;;;5.60;3.60;;;2.90;73.20;;;;;;5035033;28;20179;-65
2022/12/29 09:11:17;;;;;;;8.27;5.20;;;2.90;73.30;;;;;;5011768;28;20445;-64
2022/12/29 09:13:43;;;;;;;5.43;4.40;;;3.10;72.60;;;;;;5015383;28;20270;-63
2022/12/29 09:16:09;;;;;;;8.67;4.73;;;3.20;71.60;;;;;;5012668;28;20530;-63
2022/12/29 09:18:36;;;;;;;8.33;4.60;;;3.30;71.20;;;;;;5012414;28;20268;-63
2022/12/29 09:21:04;;;;;;;7.00;4.77;;;3.40;70.80;;;;;;5022965;28;20492;-65
2022/12/29 09:23:31;;;;;;;6.60;4.37;;;3.50;70.50;;;;;;5022249;28;20433;-65
2022/12/29 09:25:57;;;;;;;11.40;5.37;;;3.50;70.70;;;;;;5012741;28;20462;-64
2022/12/29 09:28:23;;;;;;;5.63;4.33;;;3.50;71.20;;;;;;5020328;28;20823;-67
2022/12/29 09:30:49;;;;;;;10.43;4.67;;;3.60;70.60;;;;;;5026313;28;20187;-64
2022/12/29 09:33:16;;;;;;;9.60;5.00;;;3.80;69.50;;;;;;5011684;28;20438;-64
2022/12/29 09:35:51;;;;;;;6.40;4.63;;;3.90;69.00;;;;;;5024345;28;20431;-64
2022/12/29 09:38:17;;;;;;;5.90;4.13;;;3.90;69.00;;;;;;5033083;28;20456;-64
2022/12/29 09:40:45;;;;;;;5.23;4.40;;;3.90;69.00;;;;;;5006590;28;20445;-65
2022/12/29 09:43:16;;;;;;;6.80;4.00;;;3.90;69.10;;;;;;5031018;28;20198;-63
2022/12/29 09:45:47;;;;;;;6.30;4.50;;;4.00;67.90;;;;;;5024301;28;20520;-62
2022/12/29 09:48:25;;;;;;;7.87;4.43;;;4.10;68.10;;;;;;5014097;28;20529;-63
2022/12/29 09:50:56;;;;;;;8.13;4.87;;;4.10;68.00;;;;;;5021985;28;20465;-63
2022/12/29 09:53:29;;;;;;;6.23;4.53;;;4.10;67.90;;;;;;5022367;28;20510;-63
2022/12/29 09:55:59;;;;;;;8.40;4.80;;;4.20;67.10;;;;;;5021460;28;20467;-63
2022/12/29 09:58:43;;;;;;;6.20;4.13;;;4.20;67.40;;;;;;5022621;28;20461;-63
2022/12/29 10:01:18;;;;;;;8.17;4.97;;;4.20;67.40;;;;;;5013773;28;20477;-64
2022/12/29 10:03:50;;;;;;;7.03;4.17;;;4.30;67.20;;;;;;5028710;28;20448;-65
2022/12/29 10:06:42;;;;;;;8.53;5.13;;;4.40;66.50;;;;;;5030248;28;20481;-63
2022/12/29 10:09:13;;;;;;;6.77;3.77;;;4.50;66.60;;;;;;5018046;28;20480;-63
2022/12/29 10:11:51;;;;;;;11.30;5.07;;;4.50;66.80;;;;;;5024541;28;20467;-64
2022/12/29 10:14:29;;;;;;;7.73;4.37;;;4.60;66.20;;;;;;5031077;28;20427;-64
2022/12/29 10:17:03;;;;;;;6.90;4.00;;;4.70;65.80;;;;;;5018743;28;20432;-63
2022/12/29 10:19:58;;;;;;;5.23;3.60;;;5.00;65.00;;;;;;5023967;28;20437;-64
2022/12/29 10:22:51;;;;;;;6.13;3.70;;;5.00;65.30;;;;;;5024592;28;20890;-64
2022/12/29 10:25:22;;;;;;;6.77;4.00;;;5.00;65.70;;;;;;5023191;28;20430;-64
2022/12/29 10:27:50;;;;;;;4.50;3.27;;;5.10;65.80;;;;;;5023191;28;20443;-64
2022/12/29 10:30:17;;;;;;;5.83;4.13;;;5.10;65.50;;;;;;5016160;28;20430;-63
2022/12/29 10:32:49;;;;;;;6.07;3.93;;;5.30;64.90;;;;;;5016185;28;20422;-63
2022/12/29 10:35:21;;;;;;;7.10;3.70;;;5.30;65.00;;;;;;5029304;28;20464;-63
2022/12/29 10:38:20;;;;;;;5.40;4.00;;;5.50;64.70;;;;;;5021481;28;20426;-63
2022/12/29 10:40:51;;;;;;;9.13;4.20;;;5.60;64.40;;;;;;5023030;28;20430;-63
2022/12/29 10:43:28;;;;;;;5.43;3.53;;;5.70;63.80;;;;;;5041151;28;20440;-63
2022/12/29 10:46:01;;;;;;;5.97;3.67;;;5.80;62.30;;;;;;5027084;28;20458;-63
2022/12/29 10:48:32;;;;;;;5.40;3.60;;;6.00;62.40;;;;;;5017498;28;20427;-63
2022/12/29 10:51:01;;;;;;;6.07;3.73;;;6.00;62.20;;;;;;5023541;28;20429;-62
2022/12/29 10:53:38;;;;;;;5.77;3.80;;;6.10;62.20;;;;;;5023020;28;20441;-63
2022/12/29 10:56:29;;;;;;;5.93;3.47;;;6.10;62.40;;;;;;5015225;28;20438;-63
2022/12/29 10:58:56;;;;;;;5.33;3.27;;;6.10;62.50;;;;;;5027126;28;20418;-63
2022/12/29 11:01:27;;;;;;;4.60;3.70;;;6.20;62.90;;;;;;5016421;28;20517;-62
2022/12/29 11:04:02;;;;;;;7.03;3.87;;;6.20;62.80;;;;;;5018117;28;20475;-63
2022/12/29 11:06:32;;;;;;;7.83;3.97;;;6.20;61.90;;;;;;5020357;28;20521;-66
2022/12/29 11:09:14;;;;;;;7.73;3.73;;;6.40;61.00;;;;;;5022186;28;20478;-66
2022/12/29 11:11:39;;;;;;;5.80;3.93;;;6.40;60.90;;;;;;5017777;28;20422;-63
2022/12/29 11:14:19;;;;;;;4.43;3.37;;;6.50;60.10;;;;;;5006701;28;20445;-63
2022/12/29 11:16:55;;;;;;;5.50;3.50;;;6.60;59.60;;;;;;5023486;28;20195;-63
2022/12/29 11:19:26;;;;;;;5.77;3.70;;;6.70;60.00;;;;;;5019771;28;20465;-63
2022/12/29 11:21:52;;;;;;;7.13;3.83;;;6.80;59.40;;;;;;5014859;28;20455;-64
2022/12/29 11:24:27;;;;;;;5.97;3.60;;;6.90;58.20;;;;;;5023150;28;20449;-64
2022/12/29 11:26:59;;;;;;;5.53;3.23;;;7.00;57.70;;;;;;5025479;28;20469;-63
2022/12/29 11:29:36;;;;;;;5.47;3.50;;;7.00;58.00;;;;;;5026616;28;20436;-62
2022/12/29 11:32:18;;;;;;;4.00;3.10;;;7.00;58.70;;;;;;5020963;28;20425;-62
2022/12/29 11:34:44;;;;;;;4.23;2.70;;;7.00;58.40;;;;;;5024893;28;20467;-61
2022/12/29 11:37:19;;;;;;;5.27;3.47;;;7.00;58.70;;;;;;5020206;28;20446;-62
2022/12/29 11:40:08;;;;;;;5.00;3.07;;;7.20;57.70;;;;;;5026605;28;20262;-63
2022/12/29 11:42:53;;;;;;;4.23;3.70;;;7.30;57.10;;;;;;5045920;28;20437;-62
2022/12/29 11:45:25;;;;;;;4.57;3.03;;;7.30;57.90;;;;;;5022205;28;20429;-62
2022/12/29 11:47:54;;;;;;;4.47;3.03;;;7.40;56.70;;;;;;5017324;28;20419;-63
2022/12/29 11:50:23;;;;;;;6.03;3.40;;;7.50;56.70;;;;;;5028371;28;20444;-63
2022/12/29 11:52:51;;;;;;;4.67;3.23;;;7.70;56.10;;;;;;5035731;28;20465;-62
2022/12/29 11:55:26;;;;;;;4.67;3.13;;;7.80;55.50;;;;;;5020783;28;20427;-62
2022/12/29 11:57:54;;;;;;;3.90;3.27;;;8.00;55.40;;;;;;5030654;28;20178;-62
2022/12/29 12:00:24;;;;;;;5.03;3.37;;;8.10;56.50;;;;;;5028498;28;20414;-62
2022/12/29 12:03:23;;;;;;;4.90;3.00;;;8.20;54.60;;;;;;5039764;28;20183;-62
2022/12/29 12:06:00;;;;;;;4.40;2.77;;;8.30;54.40;;;;;;5017426;28;20282;-62
2022/12/29 12:08:42;;;;;;;4.20;3.13;;;8.50;53.20;;;;;;5017205;28;20271;-62
2022/12/29 12:11:35;;;;;;;4.80;2.83;;;8.50;53.60;;;;;;5028897;28;20213;-62
2022/12/29 12:14:10;;;;;;;5.30;2.83;;;8.60;52.60;;;;;;5021174;28;20402;-64
2022/12/29 12:17:10;;;;;;;5.27;3.60;;;8.60;54.00;;;;;;5036782;28;20194;-64
2022/12/29 12:19:48;;;;;;;4.33;3.07;;;8.70;52.80;;;;;;5034098;28;21042;-66
2022/12/29 12:22:19;;;;;;;5.03;3.83;;;8.80;51.70;;;;;;5027959;28;20187;-64
2022/12/29 12:24:51;;;;;;;3.73;2.50;;;8.90;53.40;;;;;;5031253;28;20188;-65
2022/12/29 12:27:26;;;;;;;3.93;2.53;;;8.90;52.20;;;;;;5031091;28;20309;-63
2022/12/29 12:30:03;;;;;;;4.20;2.33;;;9.00;51.90;;;;;;5029075;28;20194;-62
2022/12/29 12:33:02;;;;;;;4.87;2.80;;;9.00;52.10;;;;;;5028835;28;20198;-62
2022/12/29 12:35:36;;;;;;;3.50;2.57;;;9.20;51.70;;;;;;5018756;28;20267;-62
2022/12/29 12:38:38;;;;;;;4.93;2.70;;;9.30;50.50;;;;;;5016861;28;20191;-63
2022/12/29 12:41:22;;;;;;;2.57;2.30;;;9.40;50.70;;;;;;5021559;28;20578;-63
2022/12/29 12:44:14;;;;;;;4.90;2.60;;;9.40;50.40;;;;;;5046417;28;20294;-63
2022/12/29 12:47:08;;;;;;;2.63;2.10;;;9.50;50.50;;;;;;5019069;28;20208;-63
2022/12/29 12:49:57;;;;;;;6.47;2.47;;;9.70;49.80;;;;;;5017277;28;20232;-64
2022/12/29 12:52:51;;;;;;;2.93;2.67;;;9.70;49.40;;;;;;5018934;28;20188;-64
2022/12/29 12:55:48;;;;;;;3.20;2.53;;;9.70;50.00;;;;;;5028571;28;20206;-63
2022/12/29 12:58:43;;;;;;;4.93;2.20;;;9.80;49.10;;;;;;5032136;28;20184;-63
2022/12/29 13:01:33;;;;;;;3.53;2.77;;;9.90;48.60;;;;;;5026183;28;20189;-65
2022/12/29 13:04:12;;;;;;;5.43;3.40;;;10.00;49.00;;;;;;5019376;28;20192;-62
2022/12/29 13:06:46;;;;;;;5.33;3.00;;;10.10;48.60;;;;;;5023647;28;20323;-64
2022/12/29 13:09:41;;;;;;;5.30;3.30;;;10.10;48.60;;;;;;5031274;28;20313;-62
2022/12/29 13:12:24;;;;;;;7.13;4.70;;;10.20;49.20;;;;;;5019848;28;20180;-62
2022/12/29 13:15:31;;;;;;;8.20;5.10;;;10.30;49.10;;;;;;5031251;28;20184;-63
2022/12/29 13:18:27;;;;;;;6.97;4.00;;;10.40;49.10;;;;;;4996788;28;20198;-63
2022/12/29 13:21:44;;;;;;;7.20;4.53;;;10.40;48.60;;;;;;5005823;28;20236;-63
2022/12/29 13:24:48;;;;;;;7.30;5.00;;;10.40;48.50;;;;;;5001408;28;20233;-63
2022/12/29 13:27:20;;;;;;;10.00;5.83;;;10.40;48.10;;;;;;5043834;28;20203;-63
2022/12/29 13:30:04;;;;;;;9.33;5.70;;;10.40;48.40;;;;;;5040568;28;20184;-63
2022/12/29 13:32:30;;;;;;;8.97;5.90;;;10.50;48.40;;;;;;5041969;28;20195;-62
2022/12/29 13:35:30;;;;;;;13.07;7.37;;;10.50;48.90;;;;;;5025661;28;20187;-62
2022/12/29 13:38:19;;;;;;;6.90;5.37;;;10.50;49.20;;;;;;5021533;28;21055;-61
2022/12/29 13:40:50;;;;;;;6.93;4.53;;;10.40;48.80;;;;;;5024494;28;20199;-62
2022/12/29 13:43:17;;;;;;;8.97;4.93;;;10.40;48.60;;;;;;5040147;28;20188;-62
2022/12/29 13:45:44;;;;;;;7.23;4.87;;;10.50;49.30;;;;;;5020551;28;20215;-62
2022/12/29 13:48:19;;;;;;;7.00;4.47;;;10.50;49.40;;;;;;5016265;28;20250;-63
2022/12/29 13:50:53;;;;;;;6.07;4.47;;;10.50;49.80;;;;;;5017177;28;20193;-62